createdAt,value
2022-08-12T00:01:10.539Z,25.30
2022-08-12T00:08:35.647Z,25.23
2022-08-12T00:15:57.527Z,25.11
2022-08-12T00:23:17.854Z,24.97
2022-08-12T00:30:38.079Z,24.86
2022-08-12T00:37:58.337Z,24.77
2022-08-12T00:45:00.035Z,24.64
2022-08-12T00:52:11.271Z,24.59
2022-08-12T00:59:12.865Z,24.51
2022-08-12T01:06:35.055Z,24.40
2022-08-12T01:13:40.049Z,24.30
2022-08-12T01:20:56.388Z,24.21
2022-08-12T01:27:58.055Z,24.13
2022-08-12T01:35:05.563Z,24.08
2022-08-12T01:42:10.496Z,23.98
2022-08-12T01:49:43.403Z,23.93
2022-08-12T01:56:51.676Z,23.84
2022-08-12T02:04:43.040Z,23.74
2022-08-12T02:12:13.720Z,23.68
2022-08-12T02:19:42.738Z,23.58
2022-08-12T02:26:44.705Z,23.50
2022-08-12T02:33:47.563Z,23.44
2022-08-12T02:40:51.855Z,23.34
2022-08-12T02:47:59.458Z,23.24
2022-08-12T02:55:09.439Z,23.19
2022-08-12T03:02:13.028Z,23.10
2022-08-12T03:09:16.495Z,23.01
2022-08-12T03:16:20.171Z,22.96
2022-08-12T03:23:29.570Z,22.89
2022-08-12T03:30:32.581Z,22.80
2022-08-12T03:37:34.183Z,22.75
2022-08-12T03:45:08.464Z,22.73
2022-08-12T03:52:28.569Z,22.64
2022-08-12T03:59:48.850Z,22.61
2022-08-12T04:06:50.522Z,22.59
2022-08-12T04:13:52.311Z,22.57
2022-08-12T04:20:53.922Z,22.56
2022-08-12T04:27:55.610Z,22.55
2022-08-12T04:34:57.317Z,22.53
2022-08-12T04:41:59.826Z,22.53
2022-08-12T04:49:02.733Z,22.53
2022-08-12T04:56:04.720Z,22.55
2022-08-12T05:03:07.132Z,22.57
2022-08-12T05:10:09.227Z,22.62
2022-08-12T05:17:10.826Z,22.71
2022-08-12T05:24:14.844Z,22.79
2022-08-12T05:31:16.954Z,22.93
2022-08-12T05:38:56.703Z,23.03
2022-08-12T05:45:58.361Z,23.12
2022-08-12T05:52:59.971Z,23.24
2022-08-12T06:00:03.357Z,23.40
2022-08-12T06:07:59.517Z,23.58
2022-08-12T06:14:37.018Z,23.81
2022-08-12T06:21:39.643Z,23.88
2022-08-12T06:28:45.195Z,24.12
2022-08-12T06:35:49.460Z,24.25
2022-08-12T06:42:52.827Z,24.44
2022-08-12T06:49:54.467Z,24.62
2022-08-12T06:58:05.262Z,24.80
2022-08-12T07:04:35.699Z,24.97
2022-08-12T07:11:44.586Z,25.20
2022-08-12T07:18:53.600Z,25.28
2022-08-12T07:25:58.422Z,25.49
2022-08-12T07:33:01.964Z,25.89
2022-08-12T07:40:04.013Z,26.31
2022-08-12T07:47:06.242Z,27.17
2022-08-12T07:54:09.501Z,27.94
2022-08-12T08:01:16.007Z,28.30
2022-08-12T08:08:21.648Z,28.56
2022-08-12T08:16:01.705Z,29.18
2022-08-12T08:22:58.655Z,29.80
2022-08-12T08:30:02.998Z,30.54
2022-08-12T08:37:04.832Z,30.86
2022-08-12T08:44:11.070Z,31.10
2022-08-12T08:51:13.608Z,31.74
2022-08-12T08:58:15.276Z,31.48
2022-08-12T09:13:00.611Z,31.96
2022-08-12T09:20:02.415Z,32.40
2022-08-12T09:27:06.190Z,33.29
2022-08-12T09:34:26.004Z,33.51
2022-08-12T09:42:33.967Z,34.20
2022-08-12T09:49:04.035Z,34.16
2022-08-12T09:56:59.943Z,34.39
2022-08-12T10:04:03.398Z,35.18
2022-08-12T10:11:25.114Z,34.52
2022-08-12T10:18:26.722Z,34.58
2022-08-12T10:26:35.959Z,35.01
2022-08-12T10:33:19.034Z,34.86
2022-08-12T10:40:25.371Z,34.89
2022-08-12T10:48:19.835Z,35.70
2022-08-12T10:54:52.955Z,35.78
2022-08-12T11:04:25.353Z,36.16
2022-08-12T11:09:55.652Z,35.96
2022-08-12T11:17:44.244Z,36.09
2022-08-12T11:24:30.887Z,36.84
2022-08-12T11:31:55.869Z,36.62
2022-08-12T11:38:55.743Z,36.27
2022-08-12T11:45:59.664Z,36.00
2022-08-12T11:53:02.612Z,36.54
2022-08-12T12:08:35.986Z,36.44
2022-08-12T12:14:54.641Z,37.28
2022-08-12T12:21:57.422Z,37.19
2022-08-12T12:28:59.024Z,37.63
2022-08-12T12:36:20.313Z,37.63
2022-08-12T12:43:28.606Z,38.17
2022-08-12T12:50:51.463Z,38.05
2022-08-12T12:58:00.519Z,38.56
2022-08-12T13:05:02.674Z,39.03
2022-08-12T13:12:08.732Z,38.02
2022-08-12T13:19:10.339Z,38.19
2022-08-12T13:26:14.573Z,37.71
2022-08-12T13:33:17.827Z,36.68
2022-08-12T13:40:29.783Z,35.26
2022-08-12T13:47:32.406Z,34.35
2022-08-12T13:54:40.346Z,33.99
2022-08-12T14:01:42.090Z,35.02
2022-08-12T14:08:43.941Z,36.58
2022-08-12T14:15:48.265Z,37.22
2022-08-12T14:22:51.722Z,37.06
2022-08-12T14:30:05.495Z,37.25
2022-08-12T14:37:55.213Z,37.32
2022-08-12T14:44:57.312Z,37.85
2022-08-12T14:52:56.576Z,37.10
2022-08-12T14:59:57.342Z,35.72
2022-08-12T15:07:00.354Z,36.28
2022-08-12T15:14:02.129Z,36.97
2022-08-12T15:21:11.445Z,36.81
2022-08-12T15:28:21.351Z,36.50
2022-08-12T15:35:24.271Z,36.17
2022-08-12T15:42:28.530Z,36.60
2022-08-12T15:49:43.017Z,36.52
2022-08-12T15:56:45.112Z,36.84
2022-08-12T16:04:00.354Z,36.83
2022-08-12T16:11:07.212Z,37.00
2022-08-12T16:18:20.103Z,36.08
2022-08-12T16:25:22.692Z,35.89
2022-08-12T16:32:31.112Z,35.79
2022-08-12T16:39:59.493Z,35.51
2022-08-12T16:46:57.871Z,34.56
2022-08-12T16:53:59.875Z,34.73
2022-08-12T17:01:02.208Z,34.62
2022-08-12T17:08:07.473Z,34.44
2022-08-12T17:15:41.276Z,34.19
2022-08-12T17:22:32.657Z,33.89
2022-08-12T17:30:03.056Z,33.60
2022-08-12T17:37:05.045Z,33.10
2022-08-12T17:44:07.851Z,32.89
2022-08-12T17:51:16.020Z,32.68
2022-08-12T17:58:36.896Z,32.53
2022-08-12T18:05:55.377Z,32.35
2022-08-12T18:13:02.552Z,32.19
2022-08-12T18:20:07.800Z,32.01
2022-08-12T18:27:27.994Z,31.87
2022-08-12T18:34:32.445Z,31.67
2022-08-12T18:41:35.965Z,31.51
2022-08-12T18:48:39.433Z,31.39
2022-08-12T18:55:41.210Z,31.23
2022-08-12T19:03:00.305Z,31.08
2022-08-12T19:10:03.906Z,30.91
2022-08-12T19:17:06.975Z,30.77
2022-08-12T19:24:32.447Z,30.63
2022-08-12T19:31:57.582Z,30.45
2022-08-12T19:39:02.597Z,30.34
2022-08-12T19:46:17.295Z,30.20
2022-08-12T19:53:29.997Z,30.08
2022-08-12T20:00:42.760Z,29.96
2022-08-12T20:07:59.290Z,29.91
2022-08-12T20:15:05.336Z,29.89
2022-08-12T20:22:08.400Z,29.82
2022-08-12T20:29:16.699Z,29.73
2022-08-12T20:36:40.622Z,29.68
2022-08-12T20:43:42.076Z,29.53
2022-08-12T20:50:47.628Z,29.42
2022-08-12T20:58:02.089Z,29.19
2022-08-12T21:05:24.851Z,29.11
2022-08-12T21:12:46.517Z,28.98
2022-08-12T21:19:52.926Z,28.87
2022-08-12T21:26:57.043Z,28.77
2022-08-12T21:34:08.660Z,28.70
2022-08-12T21:41:15.607Z,28.55
2022-08-12T21:48:24.334Z,28.50
2022-08-12T21:55:28.901Z,28.34
2022-08-12T22:03:07.939Z,28.23
2022-08-12T22:10:12.242Z,28.08
2022-08-12T22:17:14.475Z,27.93
2022-08-12T22:24:26.778Z,27.83
2022-08-12T22:31:31.487Z,27.70
2022-08-12T22:38:34.726Z,27.61
2022-08-12T22:45:58.864Z,27.57
2022-08-12T22:53:16.344Z,27.50
2022-08-12T23:00:24.271Z,27.35
2022-08-12T23:07:36.227Z,27.30
2022-08-12T23:14:50.909Z,27.17
2022-08-12T23:22:05.287Z,27.10
2022-08-12T23:29:29.887Z,26.97
2022-08-12T23:36:39.709Z,26.75
2022-08-12T23:43:49.951Z,26.71
2022-08-12T23:50:51.805Z,26.54
2022-08-12T23:58:22.407Z,26.37
